Corbin, VA (22446)

7:24 PM EDT on August 22, 2014 (GMT -0400)
Watford Villiage | Change Station
CLOSE
Current Station
Personal Weather Station
Location: Fredericksburg, VA
Elevation: 168 ft
Nearby Weather Stations

Elev 168 ft 38.24 °N, 77.46 °W | Updated 9 minutes ago

Clear
Clear
78.1 °F
Feels Like 81 °F
N
0.0
Wind Variable Wind from SSW
Gusts 0.0 mph

Today
High -- | Low -- °F
--% Chance of Precip.
Yesterday
High -- | Low -- °F
Precip. -- in
6:30 AM 7:53 PM
Waning Crescent, 6% visible
Pressure 29.94 in
Visibility 10.0 miles
Clouds Clear
Heat Index 81 °F
Dew Point 72 °F
Humidity 81%
Rainfall 0.04 in
Snow Depth Not available.
UV 0 out of 12
Pollen 8.80 out of 12
Air Quality Not available.
Flu Activity Not available.
METAR KEZF 222315Z AUTO 00000KT 10SM CLR 27/22 A2994 RMK AO2 T02660216

More Conditions Fewer Conditions

Pressure 29.94 in
Visibility 10.0 miles
Clouds Clear
Heat Index 81 °F
Dew Point 72 °F
Humidity 81%
Rainfall 0.04 in
Snow Depth Not available.
UV 0 out of 12
Pollen 8.80 out of 12
Air Quality Not available.
Flu Activity Not available.
METAR KEZF 222315Z AUTO 00000KT 10SM CLR 27/22 A2994 RMK AO2 T02660216

More Conditions Fewer Conditions

10-Day Weather Forecast

Almanac

Astronomy

Aug. 22, 2014 Rise Set
Actual Time 6:30 AM EDT 7:53 PM EDT
Civil Twilight 6:02 AM EDT 8:21 PM EDT
Nautical Twilight 5:29 AM EDT 8:54 PM EDT
Astronomical Twilight 4:54 AM EDT 9:28 PM EDT
Moon 3:52 AM EDT 6:00 PM EDT
Length of Visible Light 14h 18m
Length of Day
13h 23m
Tomorrow will be 2m 17s shorter.
Waning Crescent, 6% of the Moon is Illuminated
Today
Waning Crescent
Aug 25
New
Sep 2
First Quarter
Sep 8
Full
Sep 15
Last Quarter

Today's Extremes

State Highs State Lows

Community

WunderPhotos

Upload Photos

1,746,306 photos uploaded!

WunderBlogs® & News

By Dr. Jeff Masters
Director of Meteorology, Weather Underground
By Kari Strenfel
Meteorologist, Weather Underground
By Christopher C. Burt
Weather Historian, Weather Underground
August 22, 2014
August 22, 2014
August 22, 2014

Nearby

Snow Depth

Station Depth Elevation
No new snow has been reported.

Earthquake Activity

City Distance Mag. Time & Date
No recent earthquake activity has been reported nearby.
Minimum magnitude displayed is 2.5.

Coastal Water Temperatures

Place Temperature
Washington, DC 79.0 °F
Lewisetta, VA 81.0 °F
Solomons Island, MD 80.1 °F

Nearby Weather Stations